Flight Track Log - Related Links

Times and Time Zones

All times are in EDT time to prevent confusion due to time zone crossing. See the EJA941 flight status page for this flight to view local times or setup timezone preferences in your user account.

Time Position Orientation Groundspeed Altitude Reporting Facility
EDT Latitude Longitude Course Direction KTS MPH feet Rate Location/Type
Thu 04:30:37 PM 29.9778 -95.3344 268° West 206 237 600  Level Houston Center
Thu 04:31:16 PM 29.9767 -95.3681 268° West 200 230 2,300 2,687 Climbing Houston Center
Thu 04:31:44 PM 29.9700 -95.4100 260° West 254 292 3,600 2,903 Climbing Houston Center
Thu 04:32:18 PM 29.9736 -95.4458 277° West 241 277 5,300 3,934 Climbing Houston Center
Thu 04:32:45 PM 29.9819 -95.4956 281° West 270 311 7,600 3,905 Climbing Houston Center
Thu 04:33:21 PM 29.9878 -95.5303 281° West 268 308 9,400 3,927 Climbing Houston Center
Thu 04:33:40 PM 29.9931 -95.5736 278° West 269 310 11,200 2,903 Climbing Houston Center
Thu 04:34:23 PM 30.0050 -95.6394 282° West 295 339 12,400 1,771 Climbing Houston Center
Thu 04:35:25 PM 30.0219 -95.7478 280° West 338 389 14,300 1,597 Climbing Houston Center
Thu 04:36:27 PM 30.0400 -95.8614 280° West 357 411 15,700 1,355 Climbing Houston Center
Thu 04:37:29 PM 30.0572 -95.9756 280° West 363 418 17,100 1,355 Climbing Houston Center
Thu 04:38:31 PM 30.0756 -96.0906 280° West 373 429 18,500 1,500 Climbing Houston Center
Thu 04:39:33 PM 30.0975 -96.2319 280° West 375 432 20,200 1,274 Climbing Houston Center
Thu 04:41:00 PM 30.1224 -96.4293 276° West  Level FlightAware Approximate
Thu 04:44:43 PM 30.2050 -96.8825 279° West 424 488 26,400  Level Houston Center
Thu 04:45:45 PM 30.2331 -97.0169 278° West 427 491 27,700 1,210 Climbing Houston Center
Thu 04:46:00 PM 30.2721 -97.0405 278° West  Level Estimated
Thu 04:46:47 PM 30.2669 -97.1775 284° West 434 499 28,900  Level Houston Center
Thu 04:47:49 PM 30.2969 -97.3192 284° West 446 513 30,200 1,548 Climbing Houston Center
Thu 04:48:00 PM 30.2582 -97.3739 279° West  Level FlightAware Approximate
Thu 04:48:51 PM 30.3250 -97.4606 283° West 444 511 32,100  Level Houston Center
Thu 04:49:00 PM 30.2771 -97.5094 279° West  Level FlightAware Approximate
Thu 04:49:53 PM 30.3542 -97.5978 284° West 435 501 34,600  Level Houston Center
Thu 04:50:00 PM 30.2957 -97.6449 279° West  Level FlightAware Approximate
Thu 04:50:55 PM 30.3808 -97.7303 283° West 420 483 36,400  Level Houston Center
Thu 04:51:58 PM 30.4086 -97.8628 284° West 419 482 38,000 1,488 Climbing Houston Center
Thu 04:53:00 PM 30.6346 -97.9061 278° West  Level Estimated
Thu 04:53:00 PM 30.4336 -97.9903 283° West 406 467 39,500  Level Houston Center
Thu 04:54:02 PM 30.4600 -98.1189 283° West 404 465 41,100 1,065 Climbing Houston Center
Thu 04:55:04 PM 30.4886 -98.2672 283° West 403 464 41,700 435 Climbing Houston Center
Thu 04:56:06 PM 30.5144 -98.3972 283° West 407 468 42,000 532 Climbing Houston Center
Thu 04:57:08 PM 30.5408 -98.5300 283° West 416 479 42,800 484 Climbing Houston Center
Thu 04:58:10 PM 30.5667 -98.6631 283° West 417 480 43,000 97 Climbing Houston Center
Thu 04:59:12 PM 30.5939 -98.7994 283° West 429 494 43,000  Level Houston Center
Thu 05:00:14 PM 30.6217 -98.9394 283° West 440 506 43,000  Level Houston Center
Thu 05:01:16 PM 30.6486 -99.0814 282° West 444 511 43,000  Level Houston Center
Thu 05:02:18 PM 30.6767 -99.2303 282° West 446 513 43,000  Level Houston Center
Thu 05:03:20 PM 30.7044 -99.3706 283° West 447 514 43,000  Level Houston Center
Thu 05:04:22 PM 30.7311 -99.5106 283° West 447 514 43,000  Level Houston Center
Thu 05:05:24 PM 30.7628 -99.6794 282° West 448 516 43,000  Level Houston Center
Thu 05:06:26 PM 30.7889 -99.8211 282° West 451 519 43,000  Level Houston Center
Thu 05:07:28 PM 30.8153 -99.9628 282° West 453 521 43,000  Level Houston Center
Thu 05:08:30 PM 30.8403 -100.1050 282° West 451 519 43,000  Level Houston Center
Thu 05:09:32 PM 30.8669 -100.2439 283° West 445 512 43,000  Level Houston Center
Thu 05:10:35 PM 30.8981 -100.4139 282° West 454 522 43,000  Level Houston Center
Thu 05:11:37 PM 30.9228 -100.5544 282° West 447 514 43,000  Level Houston Center
Thu 05:12:39 PM 30.9475 -100.6956 282° West 444 511 43,000  Level Houston Center
Thu 05:13:41 PM 30.9728 -100.8397 282° West 459 528 43,000  Level Houston Center
Thu 05:14:43 PM 30.9986 -100.9831 282° West 465 535 43,000  Level Houston Center
Thu 05:15:45 PM 31.0286 -101.1542 282° West 455 524 43,000  Level Houston Center
Thu 05:16:47 PM 31.0561 -101.2942 283° West 450 518 43,000  Level Houston Center
Thu 05:17:34 PM 31.0697 -101.3875 280° West 453 521 43,000  Level Albuquerque Center
Thu 05:18:36 PM 31.0992 -101.5586 281° West 450 518 43,000  Level Albuquerque Center
Thu 05:19:38 PM 31.1231 -101.7017 281° West 450 518 43,000  Level Albuquerque Center
Thu 05:20:39 PM 31.1469 -101.8447 281° West 449 517 43,000  Level Albuquerque Center
Thu 05:21:41 PM 31.1722 -102.0042 281° West 463 533 43,000  Level Albuquerque Center
Thu 05:22:43 PM 31.1969 -102.1475 281° West 454 522 43,000  Level Albuquerque Center
Thu 05:23:45 PM 31.2203 -102.2892 281° West 448 516 43,000  Level Albuquerque Center
Thu 05:24:47 PM 31.2428 -102.4289 281° West 441 507 43,000  Level Albuquerque Center
Thu 05:25:49 PM 31.2650 -102.5689 281° West 440 506 43,000  Level Albuquerque Center
Thu 05:26:51 PM 31.2883 -102.7108 281° West 442 509 43,000  Level Albuquerque Center
Thu 05:27:53 PM 31.3158 -102.8797 281° West 442 509 43,000  Level Albuquerque Center
Thu 05:28:54 PM 31.3383 -103.0206 281° West 442 509 43,000  Level Albuquerque Center
Thu 05:29:56 PM 31.3608 -103.1606 281° West 440 506 43,000  Level Albuquerque Center
Thu 05:30:58 PM 31.3825 -103.3011 280° West 440 506 43,000  Level Albuquerque Center
Thu 05:32:00 PM 31.4039 -103.4411 280° West 439 505 43,000  Level Albuquerque Center
Thu 05:33:02 PM 31.4247 -103.5814 280° West 439 505 43,000  Level Albuquerque Center
Thu 05:34:04 PM 31.4528 -103.7478 281° West 436 502 43,000  Level Albuquerque Center
Thu 05:35:06 PM 31.4694 -103.8669 279° West 434 499 43,000  Level Albuquerque Center
Thu 05:36:07 PM 31.4903 -104.0061 280° West 435 501 43,000  Level Albuquerque Center
Thu 05:37:09 PM 31.5181 -104.1736 281° West 437 503 43,000  Level Albuquerque Center
Thu 05:38:11 PM 31.5389 -104.3122 280° West 436 502 43,000  Level Albuquerque Center
Thu 05:39:13 PM 31.5581 -104.4508 279° West 434 499 43,000  Level Albuquerque Center
Thu 05:40:15 PM 31.5792 -104.5900 280° West 435 501 43,000  Level Albuquerque Center
Thu 05:41:17 PM 31.6003 -104.7272 280° West 432 497 43,000  Level Albuquerque Center
Thu 05:42:18 PM 31.6203 -104.8647 280° West 431 496 43,000  Level Albuquerque Center
Thu 05:43:20 PM 31.6439 -105.0300 280° West 431 496 43,000  Level Albuquerque Center
Thu 05:44:22 PM 31.6631 -105.1667 279° West 428 493 43,000 -435 Level Albuquerque Center
Thu 05:45:24 PM 31.6839 -105.3056 280° West 433 498 42,100 -919 Descending Albuquerque Center
Thu 05:46:26 PM 31.7028 -105.4517 279° West 451 519 41,100 -976 Descending Albuquerque Center
Thu 05:47:27 PM 31.7228 -105.5986 279° West 458 527 40,100 -537 Descending Albuquerque Center
Thu 05:48:29 PM 31.7481 -105.7711 280° West 449 517 40,000 -48 Descending Albuquerque Center
Thu 05:49:31 PM 31.7669 -105.9139 279° West 446 513 40,000  Level Albuquerque Center
Thu 05:50:33 PM 31.7864 -106.0569 279° West 446 513 40,000  Level Albuquerque Center
Thu 05:51:35 PM 31.8067 -106.1989 280° West 443 510 40,000  Level Albuquerque Center
Thu 05:52:36 PM 31.8275 -106.3442 280° West 449 517 40,000  Level Albuquerque Center
Thu 05:53:38 PM 31.8483 -106.4886 280° West 450 518 40,000  Level Albuquerque Center
Thu 05:54:40 PM 31.8722 -106.6564 280° West 451 519 40,000  Level Albuquerque Center
Thu 05:55:42 PM 31.8939 -106.8000 280° West 447 514 40,000  Level Albuquerque Center
Thu 05:56:43 PM 31.9153 -106.9450 280° West 448 516 40,000  Level Albuquerque Center
Thu 05:57:45 PM 31.9353 -107.0928 279° West 453 521 40,000  Level Albuquerque Center
Thu 05:58:47 PM 31.9564 -107.2403 280° West 454 522 40,000  Level Albuquerque Center
Thu 05:59:49 PM 31.9761 -107.3883 279° West 455 524 40,000  Level Albuquerque Center
Thu 06:00:50 PM 31.9967 -107.5369 279° West 457 526 40,000  Level Albuquerque Center
Thu 06:01:52 PM 32.0172 -107.6844 279° West 456 525 40,000  Level Albuquerque Center
Thu 06:02:54 PM 32.0408 -107.8589 279° West 450 518 40,000  Level Albuquerque Center
Thu 06:03:56 PM 32.0606 -108.0064 279° West 452 520 40,000  Level Albuquerque Center
Thu 06:04:57 PM 32.0808 -108.1572 279° West 455 524 40,000  Level Albuquerque Center
Thu 06:05:59 PM 32.1008 -108.3047 279° West 456 525 40,000  Level Albuquerque Center
Thu 06:07:01 PM 32.1197 -108.4517 279° West 456 525 40,000  Level Albuquerque Center
Thu 06:08:03 PM 32.1392 -108.6011 279° West 459 528 40,000  Level Albuquerque Center
Thu 06:09:05 PM 32.1575 -108.7497 278° West 461 531 40,000  Level Albuquerque Center
Thu 06:10:07 PM 32.1803 -108.9272 279° West 460 529 40,000  Level Albuquerque Center
Thu 06:11:08 PM 32.1989 -109.0761 278° West 459 528 40,000  Level Albuquerque Center
Thu 06:12:10 PM 32.2175 -109.2250 278° West 460 529 40,000  Level Albuquerque Center
Thu 06:13:12 PM 32.2364 -109.3725 279° West 459 528 40,000  Level Albuquerque Center
Thu 06:14:14 PM 32.2547 -109.5228 278° West 463 533 40,000  Level Albuquerque Center
Thu 06:15:16 PM 32.2714 -109.6711 278° West 461 531 40,000  Level Albuquerque Center
Thu 06:16:18 PM 32.2947 -109.8478 279° West 457 526 40,000  Level Albuquerque Center
Thu 06:17:19 PM 32.3350 -109.9892 289° West 460 529 40,000  Level Albuquerque Center
Thu 06:18:21 PM 32.3808 -110.1322 291° West 465 535 40,000  Level Albuquerque Center
Thu 06:19:23 PM 32.4222 -110.2733 289° West 460 529 40,000  Level Albuquerque Center
Thu 06:20:25 PM 32.4636 -110.4142 289° West 460 529 40,000  Level Albuquerque Center
Thu 06:21:27 PM 32.5050 -110.5567 289° West 460 529 40,000  Level Albuquerque Center
Thu 06:22:29 PM 32.5556 -110.7250 290° West 456 525 40,000  Level Albuquerque Center
Thu 06:23:30 PM 32.5972 -110.8689 289° West 457 526 40,000  Level Albuquerque Center
Thu 06:24:32 PM 32.6381 -111.0122 289° West 459 528 40,000  Level Albuquerque Center
Thu 06:25:34 PM 32.6797 -111.1567 289° West 461 531 40,000  Level Albuquerque Center
Thu 06:26:36 PM 32.7197 -111.3000 288° West 459 528 40,000  Level Albuquerque Center
Thu 06:27:38 PM 32.7617 -111.4414 289° West 454 522 40,000  Level Albuquerque Center
Thu 06:28:40 PM 32.8028 -111.5864 289° West 461 531 40,000  Level Albuquerque Center
Thu 06:29:42 PM 32.8503 -111.7597 288° West 460 529 40,000  Level Albuquerque Center
Thu 06:30:44 PM 32.8897 -111.9053 288° West 461 531 40,000  Level Albuquerque Center
Thu 06:31:45 PM 32.9306 -112.0508 289° West 462 532 40,000  Level Albuquerque Center
Thu 06:32:47 PM 32.9703 -112.1958 288° West 461 531 40,000  Level Albuquerque Center
Thu 06:33:49 PM 33.0125 -112.3506 288° West 464 534 40,000  Level Albuquerque Center
Thu 06:34:51 PM 33.0533 -112.4972 288° West 468 539 40,000  Level Albuquerque Center
Thu 06:35:53 PM 33.0947 -112.6425 289° West 466 536 40,000  Level Albuquerque Center
Thu 06:36:54 PM 33.1367 -112.7878 289° West 466 536 40,000  Level Albuquerque Center
Thu 06:37:56 PM 33.1856 -112.9636 288° West 469 540 40,000  Level Albuquerque Center
Thu 06:38:58 PM 33.2278 -113.1114 289° West 472 543 40,000  Level Albuquerque Center
Thu 06:40:00 PM 33.2683 -113.2592 288° West 471 542 40,000  Level Albuquerque Center
Thu 06:41:02 PM 33.3086 -113.4075 288° West 471 542 40,000  Level Albuquerque Center
Thu 06:42:04 PM 33.3492 -113.5550 288° West 471 542 40,000  Level Albuquerque Center
Thu 06:43:05 PM 33.3908 -113.7019 289° West 470 541 40,000  Level Albuquerque Center
Thu 06:44:07 PM 33.4281 -113.8853 284° West 474 545 40,000  Level Albuquerque Center
Thu 06:45:09 PM 33.4542 -114.0394 282° West 473 544 40,000  Level Albuquerque Center
Thu 06:46:10 PM 33.4839 -114.1908 283° West 471 542 40,000  Level Albuquerque Center
Thu 06:47:12 PM 33.5142 -114.3422 284° West 469 540 40,000  Level Albuquerque Center
Thu 06:48:14 PM 33.5458 -114.4947 284° West 472 543 40,000  Level Albuquerque Center
Thu 06:49:18 PM 33.5892 -114.6497 289° West 471 542 40,000  Level Los Angeles Center
Thu 06:50:20 PM 33.6364 -114.8294 288° West 472 543 40,000  Level Los Angeles Center
Thu 06:51:22 PM 33.6747 -114.9803 287° West 473 544 40,000  Level Los Angeles Center
Thu 06:52:24 PM 33.7150 -115.1311 288° West 476 548 40,000  Level Los Angeles Center
Thu 06:53:26 PM 33.7531 -115.2825 287° West 475 547 40,000  Level Los Angeles Center
Thu 06:54:29 PM 33.7908 -115.4333 287° West 475 547 40,000  Level Los Angeles Center
Thu 06:55:31 PM 33.8378 -115.6156 287° West 478 550 40,000  Level Los Angeles Center
Thu 06:56:33 PM 33.8767 -115.7669 287° West 476 548 40,000  Level Los Angeles Center
Thu 06:57:35 PM 33.9144 -115.9186 287° West 475 547 40,000  Level Los Angeles Center
Thu 06:58:37 PM 33.9522 -116.0717 287° West 479 551 40,000  Level Los Angeles Center
Thu 06:59:39 PM 33.9908 -116.2236 287° West 477 549 40,000  Level Los Angeles Center
Thu 07:00:41 PM 34.0364 -116.4075 287° West 481 554 40,000  Level Los Angeles Center
Thu 07:01:43 PM 34.0739 -116.5597 287° West 478 550 40,000  Level Los Angeles Center
Thu 07:02:45 PM 34.1111 -116.7139 286° West 480 552 40,000  Level Los Angeles Center
Thu 07:03:47 PM 34.1467 -116.8619 286° West 478 550 40,000  Level Los Angeles Center
Thu 07:04:50 PM 34.1842 -117.0175 286° West 482 555 40,000  Level Los Angeles Center
Thu 07:05:52 PM 34.2272 -117.1964 286° West 484 557 40,000  Level Los Angeles Center
Thu 07:06:54 PM 34.2647 -117.3517 286° West 483 556 40,000  Level Los Angeles Center
Thu 07:07:56 PM 34.3017 -117.5072 286° West 484 557 40,000  Level Los Angeles Center
Thu 07:08:58 PM 34.3378 -117.6636 286° West 486 559 40,000  Level Los Angeles Center
Thu 07:10:00 PM 34.3831 -117.8525 286° West 490 564 40,000  Level Los Angeles Center
Thu 07:11:02 PM 34.4164 -117.9958 286° West 490 564 40,000  Level Los Angeles Center
Thu 07:12:04 PM 34.4875 -118.1547 299° West 492 566 40,000  Level Los Angeles Center
Thu 07:13:06 PM 34.5589 -118.2947 302° West 491 565 40,000  Level Los Angeles Center
Thu 07:14:08 PM 34.6386 -118.4553 301° West 490 564 40,000  Level Los Angeles Center
Thu 07:15:11 PM 34.7133 -118.6036 302° West 488 562 40,000  Level Los Angeles Center
Thu 07:16:13 PM 34.7850 -118.7442 302° West 491 565 40,000  Level Los Angeles Center
Thu 07:17:15 PM 34.8569 -118.8867 302° West 499 574 40,000  Level Los Angeles Center
Thu 07:18:17 PM 34.9361 -119.0428 302° West 487 560 40,000  Level Los Angeles Center
Thu 07:19:19 PM 35.0064 -119.1850 301° West 490 564 40,000  Level Los Angeles Center
Thu 07:20:21 PM 35.0772 -119.3281 301° West 492 566 40,000  Level Los Angeles Center
Thu 07:21:23 PM 35.1506 -119.4714 302° West 499 574 40,000  Level Los Angeles Center
Thu 07:22:25 PM 35.2189 -119.6139 300° West 490 564 40,000  Level Los Angeles Center
Thu 07:23:27 PM 35.3025 -119.7850 301° West 485 558 40,000  Level Los Angeles Center
Thu 07:24:29 PM 35.3714 -119.9272 301° West 485 558 40,000  Level Los Angeles Center
Thu 07:25:25 PM 35.4264 -120.0414 301° West 495 570 40,000  Level Oakland Center
Thu 07:26:26 PM 35.5094 -120.2125 301° West 498 573 40,000  Level Oakland Center
Thu 07:27:28 PM 35.5769 -120.3542 300° West 496 571 40,000  Level Oakland Center
Thu 07:28:29 PM 35.6436 -120.4975 300° West 492 566 40,000  Level Oakland Center
Thu 07:29:31 PM 35.7114 -120.6408 300° West 492 566 40,000  Level Oakland Center
Thu 07:30:32 PM 35.7797 -120.7853 300° West 492 566 40,000  Level Oakland Center
Thu 07:31:34 PM 35.8475 -120.9306 300° West 492 566 40,000  Level Oakland Center
Thu 07:32:35 PM 35.9292 -121.1056 300° West 492 566 40,000  Level Oakland Center
Thu 07:33:37 PM 35.9967 -121.2519 300° West 493 567 40,000  Level Oakland Center
Thu 07:34:38 PM 36.0647 -121.3978 300° West 492 566 40,000 -976 Level Oakland Center
Thu 07:35:40 PM 36.1472 -121.5225 309° West 491 565 38,000 -2,732 Descending Oakland Center
Thu 07:36:41 PM 36.2628 -121.6058 330° Northwest 488 562 34,400 -3,590 Descending Oakland Center
Thu 07:37:42 PM 36.3817 -121.6944 329° Northwest 505 581 30,700 -3,659 Descending Oakland Center
Thu 07:38:44 PM 36.5008 -121.7844 329° Northwest 508 585 26,900 -4,071 Descending Oakland Center
Thu 07:39:06 PM 36.5667 -121.8333 329° Northwest 495 570 25,000 -3,220 Descending Northern Cal TRACON
Thu 07:40:06 PM 36.6833 -121.9000 335° Northwest 449 517 22,500 -2,550 Descending Northern Cal TRACON
Thu 07:41:06 PM 36.7833 -121.9500 338° Northwest 395 455 19,900 -2,500 Descending Northern Cal TRACON
Thu 07:42:06 PM 36.8833 -121.9833 345° North 366 421 17,500 -2,423 Descending Northern Cal TRACON
Thu 07:42:50 PM 36.9506 -121.9994 349° North 359 413 15,700 -2,343 Descending Oakland Center
Thu 07:43:51 PM 37.0406 -122.0303 345° North 339 390 13,400 -2,262 Descending Oakland Center
Thu 07:44:52 PM 37.1275 -122.0597 345° North 324 373 11,100 -1,659 Descending Oakland Center
Thu 07:45:54 PM 37.2128 -122.0861 346° North 315 362 10,000 -1,366 Descending Oakland Center
Thu 07:46:55 PM 37.2917 -122.1089 347° North 293 337 8,300 -1,463 Descending Oakland Center
Thu 07:47:57 PM 37.3675 -122.1278 349° North 281 323 7,000 -1,463 Descending Oakland Center
Thu 07:48:58 PM 37.4414 -122.1456 349° North 273 314 5,300 -1,463 Descending Oakland Center
Thu 07:50:00 PM 37.5092 -122.1658 347° North 260 299 4,000 -1,268 Descending Oakland Center
Thu 07:51:01 PM 37.5653 -122.2086 329° Northwest 224 258 2,700 -1,131 Descending Oakland Center
Thu 07:52:02 PM 37.5836 -122.2683 291° West 198 228 1,700 -927 Descending Oakland Center
Thu 07:53:04 PM 37.5967 -122.3194 288° West 174 200 800 -732 Descending Oakland Center
Thu 07:54:05 PM 37.6111 -122.3631 293° West 153 176 200 -590 Descending Oakland Center
Thu 07:56:00 PM 37.6167 -122.3667 322° Northwest  Level FlightAware Approximate

Login

Don't have an account? Register now (free) for customized features, flight alerts, and more!